createdAt,value
2022-11-06T00:02:06.246Z,8.30
2022-11-06T00:04:35.131Z,8.20
2022-11-06T00:07:04.160Z,8.20
2022-11-06T00:09:32.817Z,8.20
2022-11-06T00:12:01.508Z,8.20
2022-11-06T00:14:30.141Z,8.10
2022-11-06T00:16:58.738Z,8.00
2022-11-06T00:19:27.507Z,8.00
2022-11-06T00:21:56.226Z,7.90
2022-11-06T00:24:26.660Z,7.90
2022-11-06T00:26:55.284Z,7.80
2022-11-06T00:29:23.974Z,7.70
2022-11-06T00:31:52.857Z,7.50
2022-11-06T00:34:21.503Z,7.50
2022-11-06T00:36:50.296Z,7.50
2022-11-06T00:39:19.143Z,7.50
2022-11-06T00:41:49.227Z,7.50
2022-11-06T00:44:18.517Z,7.40
2022-11-06T00:46:47.420Z,7.40
2022-11-06T00:49:17.145Z,7.40
2022-11-06T00:51:46.005Z,4.90
2022-11-06T00:54:15.009Z,7.30
2022-11-06T00:56:43.682Z,7.40
2022-11-06T00:59:14.238Z,7.30
2022-11-06T01:01:44.428Z,7.30
2022-11-06T01:04:14.361Z,7.30
2022-11-06T01:06:44.639Z,7.20
2022-11-06T01:09:14.394Z,7.20
2022-11-06T01:12:10.928Z,7.20
2022-11-06T01:14:34.907Z,7.20
2022-11-06T01:17:03.575Z,7.10
2022-11-06T01:19:32.142Z,9.80
2022-11-06T01:22:00.768Z,7.00
2022-11-06T01:24:30.093Z,7.00
2022-11-06T01:27:25.074Z,6.90
2022-11-06T01:29:49.329Z,7.00
2022-11-06T01:32:18.047Z,7.00
2022-11-06T01:34:46.928Z,7.00
2022-11-06T01:37:15.518Z,7.00
2022-11-06T01:39:44.369Z,6.90
2022-11-06T01:42:13.640Z,6.90
2022-11-06T01:45:01.324Z,6.90
2022-11-06T01:47:31.716Z,6.90
2022-11-06T01:50:02.047Z,6.80
2022-11-06T01:52:31.496Z,6.70
2022-11-06T01:55:04.191Z,6.70
2022-11-06T01:57:32.806Z,6.70
2022-11-06T02:00:01.650Z,6.70
2022-11-06T02:02:31.834Z,6.70
2022-11-06T02:05:00.597Z,6.70
2022-11-06T02:07:29.244Z,6.70
2022-11-06T02:09:57.838Z,6.70
2022-11-06T02:12:34.118Z,6.70
2022-11-06T02:15:04.483Z,6.60
2022-11-06T02:17:41.120Z,6.60
2022-11-06T02:20:14.132Z,6.50
2022-11-06T02:23:04.166Z,6.50
2022-11-06T02:25:39.645Z,6.50
2022-11-06T02:28:11.622Z,6.50
2022-11-06T02:30:43.027Z,6.40
2022-11-06T02:33:13.977Z,6.40
2022-11-06T02:35:44.712Z,6.40
2022-11-06T02:38:15.502Z,6.30
2022-11-06T02:40:46.278Z,6.20
2022-11-06T02:43:17.510Z,6.20
2022-11-06T02:45:48.647Z,6.20
2022-11-06T02:48:18.506Z,6.20
2022-11-06T02:50:48.667Z,6.10
2022-11-06T02:53:19.359Z,6.20
2022-11-06T02:55:49.751Z,6.10
2022-11-06T02:58:21.841Z,6.10
2022-11-06T03:00:53.442Z,6.00
2022-11-06T03:03:24.840Z,6.10
2022-11-06T03:05:55.293Z,6.10
2022-11-06T03:08:27.548Z,6.00
2022-11-06T03:10:59.786Z,6.00
2022-11-06T03:13:34.668Z,5.90
2022-11-06T03:16:05.562Z,5.80
2022-11-06T03:18:36.076Z,5.80
2022-11-06T03:21:07.582Z,5.70
2022-11-06T03:23:38.080Z,5.60
2022-11-06T03:26:11.867Z,5.50
2022-11-06T03:28:45.647Z,5.50
2022-11-06T03:31:15.929Z,5.40
2022-11-06T03:33:47.613Z,5.40
2022-11-06T03:36:19.324Z,5.40
2022-11-06T03:38:49.171Z,5.30
2022-11-06T03:41:21.309Z,5.20
2022-11-06T03:43:53.356Z,5.10
2022-11-06T03:46:25.224Z,5.10
2022-11-06T03:48:55.874Z,5.10
2022-11-06T03:51:28.946Z,5.10
2022-11-06T03:53:59.396Z,5.10
2022-11-06T03:56:30.729Z,5.00
2022-11-06T03:59:03.022Z,5.00
2022-11-06T04:01:35.692Z,4.90
2022-11-06T04:04:07.240Z,4.90
2022-11-06T04:06:38.497Z,4.90
2022-11-06T04:09:26.353Z,5.00
2022-11-06T04:12:25.762Z,5.00
2022-11-06T04:14:57.550Z,5.00
2022-11-06T04:17:28.866Z,5.10
2022-11-06T04:19:59.445Z,5.20
2022-11-06T04:22:40.981Z,5.10
2022-11-06T04:25:35.168Z,5.10
2022-11-06T04:28:13.283Z,5.00
2022-11-06T04:30:46.282Z,5.00
2022-11-06T04:33:18.974Z,4.90
2022-11-06T04:35:55.552Z,4.90
2022-11-06T04:38:27.827Z,4.80
2022-11-06T04:40:59.682Z,4.80
2022-11-06T04:43:31.674Z,4.70
2022-11-06T04:46:02.430Z,4.70
2022-11-06T04:48:31.579Z,4.70
2022-11-06T04:51:01.253Z,4.70
2022-11-06T04:53:30.773Z,4.70
2022-11-06T04:56:02.484Z,4.60
2022-11-06T04:58:31.040Z,4.50
2022-11-06T05:01:00.873Z,4.40
2022-11-06T05:03:29.589Z,4.20
2022-11-06T05:05:58.157Z,4.10
2022-11-06T05:08:26.851Z,4.10
2022-11-06T05:10:55.413Z,4.00
2022-11-06T05:13:24.052Z,4.10
2022-11-06T05:15:56.208Z,4.10
2022-11-06T05:18:26.192Z,4.10
2022-11-06T05:21:15.656Z,4.20
2022-11-06T05:23:43.467Z,4.20
2022-11-06T05:26:12.318Z,4.20
2022-11-06T05:28:40.926Z,4.30
2022-11-06T05:31:09.560Z,4.30
2022-11-06T05:33:39.365Z,4.30
2022-11-06T05:36:08.354Z,4.30
2022-11-06T05:38:37.329Z,4.30
2022-11-06T05:41:06.097Z,4.50
2022-11-06T05:43:35.179Z,4.30
2022-11-06T05:46:03.798Z,4.40
2022-11-06T05:48:32.355Z,4.40
2022-11-06T05:51:03.246Z,4.40
2022-11-06T05:53:32.271Z,4.40
2022-11-06T05:56:00.820Z,4.40
2022-11-06T05:58:29.560Z,4.40
2022-11-06T06:00:58.770Z,4.50
2022-11-06T06:03:27.487Z,4.50
2022-11-06T06:05:56.526Z,4.50
2022-11-06T06:08:26.418Z,4.50
2022-11-06T06:10:55.092Z,4.60
2022-11-06T06:13:23.599Z,4.60
2022-11-06T06:15:52.237Z,4.70
2022-11-06T06:18:20.924Z,4.70
2022-11-06T06:20:49.507Z,4.70
2022-11-06T06:23:18.084Z,4.80
2022-11-06T06:25:48.131Z,4.80
2022-11-06T06:28:16.797Z,4.90
2022-11-06T06:30:45.522Z,4.90
2022-11-06T06:33:14.072Z,5.00
2022-11-06T06:35:42.766Z,5.10
2022-11-06T06:38:11.593Z,5.00
2022-11-06T06:40:40.687Z,5.00
2022-11-06T06:43:10.519Z,5.00
2022-11-06T06:45:39.140Z,4.90
2022-11-06T06:48:08.046Z,5.00
2022-11-06T06:50:36.809Z,5.10
2022-11-06T06:53:05.652Z,5.20
2022-11-06T06:55:34.165Z,5.30
2022-11-06T06:58:03.359Z,5.20
2022-11-06T07:00:33.232Z,5.30
2022-11-06T07:03:02.591Z,5.20
2022-11-06T07:05:31.143Z,5.20
2022-11-06T07:07:59.700Z,5.20
2022-11-06T07:10:28.880Z,5.30
2022-11-06T07:12:57.428Z,5.30
2022-11-06T07:15:26.202Z,5.20
2022-11-06T07:17:55.981Z,5.10
2022-11-06T07:20:24.520Z,5.20
2022-11-06T07:22:53.112Z,5.30
2022-11-06T07:25:21.761Z,5.50
2022-11-06T07:27:50.249Z,5.50
2022-11-06T07:30:19.043Z,5.50
2022-11-06T07:32:47.774Z,5.60
2022-11-06T07:35:17.741Z,5.50
2022-11-06T07:37:46.385Z,5.60
2022-11-06T07:40:15.340Z,5.50
2022-11-06T07:42:44.079Z,5.50
2022-11-06T07:45:17.005Z,5.50
2022-11-06T07:47:45.636Z,5.50
2022-11-06T07:50:14.328Z,5.50
2022-11-06T07:52:44.256Z,5.70
2022-11-06T07:55:12.932Z,5.80
2022-11-06T07:57:42.192Z,5.80
2022-11-06T08:00:11.246Z,5.70
2022-11-06T08:02:42.941Z,5.70
2022-11-06T08:05:11.786Z,5.60
2022-11-06T08:07:40.810Z,5.60
2022-11-06T08:10:11.053Z,5.50
2022-11-06T08:12:39.637Z,5.60
2022-11-06T08:15:08.601Z,5.60
2022-11-06T08:17:37.599Z,5.60
2022-11-06T08:20:06.813Z,5.70
2022-11-06T08:22:35.588Z,5.80
2022-11-06T08:25:04.484Z,5.90
2022-11-06T08:27:34.416Z,5.90
2022-11-06T08:30:03.294Z,5.70
2022-11-06T08:32:32.026Z,5.70
2022-11-06T08:35:00.684Z,5.90
2022-11-06T08:37:29.147Z,6.10
2022-11-06T08:39:57.832Z,6.10
2022-11-06T08:42:26.539Z,6.20
2022-11-06T08:44:56.415Z,6.30
2022-11-06T08:47:25.074Z,6.50
2022-11-06T08:49:53.593Z,6.60
2022-11-06T08:52:22.357Z,6.70
2022-11-06T08:54:50.951Z,6.60
2022-11-06T08:57:20.572Z,6.80
2022-11-06T08:59:49.693Z,6.70
2022-11-06T09:02:20.251Z,6.80
2022-11-06T09:04:49.773Z,6.90
2022-11-06T09:07:19.634Z,7.10
2022-11-06T09:09:49.248Z,7.10
2022-11-06T09:12:19.019Z,7.00
2022-11-06T09:14:48.653Z,7.00
2022-11-06T09:17:18.987Z,7.20
2022-11-06T09:19:49.503Z,7.30
2022-11-06T09:22:18.316Z,7.20
2022-11-06T09:25:03.264Z,7.30
2022-11-06T09:27:33.433Z,7.40
2022-11-06T09:30:02.128Z,7.40
2022-11-06T09:32:30.873Z,7.40
2022-11-06T09:35:01.180Z,7.40
2022-11-06T09:37:29.875Z,7.30
2022-11-06T09:40:04.705Z,7.30
2022-11-06T09:42:42.912Z,7.10
2022-11-06T09:45:13.451Z,7.20
2022-11-06T09:47:44.818Z,7.10
2022-11-06T09:50:17.234Z,7.10
2022-11-06T09:52:49.669Z,7.20
2022-11-06T09:55:20.592Z,7.30
2022-11-06T09:57:52.786Z,7.30
2022-11-06T10:00:22.011Z,7.40
2022-11-06T10:02:52.181Z,7.40
2022-11-06T10:05:26.593Z,7.60
2022-11-06T10:07:56.656Z,7.70
2022-11-06T10:10:29.892Z,7.90
2022-11-06T10:13:05.922Z,8.10
2022-11-06T10:15:35.470Z,7.90
2022-11-06T10:18:12.466Z,7.90
2022-11-06T10:20:47.868Z,8.00
2022-11-06T10:23:19.940Z,8.10
2022-11-06T10:25:55.192Z,8.10
2022-11-06T10:28:29.719Z,8.10
2022-11-06T10:31:03.293Z,8.10
2022-11-06T10:33:41.848Z,8.10
2022-11-06T10:36:14.246Z,8.10
2022-11-06T10:38:44.263Z,8.00
2022-11-06T10:41:16.748Z,8.10
2022-11-06T10:43:49.599Z,8.20
2022-11-06T10:46:20.680Z,8.40
2022-11-06T10:48:52.925Z,8.20
2022-11-06T10:51:27.787Z,8.30
2022-11-06T10:54:01.203Z,8.30
2022-11-06T10:56:35.826Z,8.30
2022-11-06T10:59:05.286Z,8.50
2022-11-06T11:01:33.989Z,8.50
2022-11-06T11:04:02.803Z,8.50
2022-11-06T11:06:32.768Z,8.50
2022-11-06T11:09:02.061Z,8.50
2022-11-06T11:11:30.763Z,8.50
2022-11-06T11:14:22.852Z,8.50
2022-11-06T11:16:51.987Z,8.50
2022-11-06T11:19:26.497Z,8.50
2022-11-06T11:21:57.845Z,8.50
2022-11-06T11:24:38.310Z,8.60
2022-11-06T11:27:08.466Z,8.30
2022-11-06T11:29:44.811Z,8.30
2022-11-06T11:32:15.950Z,8.30
2022-11-06T11:34:50.267Z,8.20
2022-11-06T11:37:27.352Z,8.20
2022-11-06T11:39:56.161Z,8.20
2022-11-06T11:42:26.053Z,8.10
2022-11-06T11:45:13.134Z,8.20
2022-11-06T11:47:42.680Z,8.30
2022-11-06T11:50:26.097Z,8.40
2022-11-06T11:52:58.440Z,8.50
2022-11-06T11:55:28.751Z,8.60
2022-11-06T11:57:59.616Z,8.50
2022-11-06T12:00:29.422Z,8.60
2022-11-06T12:02:59.852Z,8.50
2022-11-06T12:05:30.834Z,8.60
2022-11-06T12:08:01.682Z,8.50
2022-11-06T12:10:31.907Z,8.50
2022-11-06T12:13:02.018Z,8.60
2022-11-06T12:15:33.491Z,8.50
2022-11-06T12:18:02.993Z,8.50
2022-11-06T12:20:36.568Z,8.50
2022-11-06T12:23:11.771Z,8.60
2022-11-06T12:25:42.478Z,8.70
2022-11-06T12:28:16.374Z,8.70
2022-11-06T12:30:47.328Z,8.70
2022-11-06T12:33:17.531Z,8.90
2022-11-06T12:35:48.638Z,9.10
2022-11-06T12:38:22.403Z,10.00
2022-11-06T12:40:55.197Z,8.90
2022-11-06T12:43:28.489Z,8.80
2022-11-06T12:46:13.692Z,8.60
2022-11-06T12:48:51.654Z,8.50
2022-11-06T12:51:24.365Z,8.60
2022-11-06T12:54:00.532Z,8.60
2022-11-06T12:56:31.798Z,8.50
2022-11-06T12:59:10.158Z,8.40
2022-11-06T13:01:48.642Z,8.50
2022-11-06T13:04:32.019Z,8.50
2022-11-06T13:07:15.070Z,8.50
2022-11-06T13:09:47.766Z,8.40
2022-11-06T13:12:20.855Z,8.20
2022-11-06T13:14:54.890Z,8.30
2022-11-06T13:17:26.413Z,8.30
2022-11-06T13:19:58.841Z,8.40
2022-11-06T13:22:39.435Z,8.40
2022-11-06T13:25:16.961Z,8.30
2022-11-06T13:27:47.544Z,8.20
2022-11-06T13:30:18.681Z,8.10
2022-11-06T13:33:06.234Z,8.00
2022-11-06T13:35:37.727Z,7.90
2022-11-06T13:38:08.012Z,7.70
2022-11-06T13:40:41.148Z,7.60
2022-11-06T13:43:14.020Z,7.70
2022-11-06T13:45:44.879Z,8.00
2022-11-06T13:48:36.964Z,7.90
2022-11-06T13:51:10.285Z,7.80
2022-11-06T13:53:42.137Z,7.60
2022-11-06T13:56:16.481Z,7.40
2022-11-06T13:59:09.311Z,7.20
2022-11-06T14:01:47.014Z,7.10
2022-11-06T14:04:41.268Z,7.00
2022-11-06T14:07:11.527Z,6.90
2022-11-06T14:09:44.189Z,6.80
2022-11-06T14:12:17.269Z,6.70
2022-11-06T14:14:46.349Z,6.60
2022-11-06T14:17:21.977Z,6.60
2022-11-06T14:20:05.634Z,6.50
2022-11-06T14:22:36.412Z,6.30
2022-11-06T14:25:20.421Z,6.30
2022-11-06T14:28:07.742Z,6.10
2022-11-06T14:31:11.101Z,6.00
2022-11-06T14:33:51.683Z,5.90
2022-11-06T14:36:27.941Z,5.80
2022-11-06T14:38:56.915Z,5.70
2022-11-06T14:41:52.921Z,5.60
2022-11-06T14:44:35.666Z,5.50
2022-11-06T14:47:08.665Z,5.40
2022-11-06T14:49:41.903Z,5.30
2022-11-06T14:52:12.532Z,5.20
2022-11-06T14:54:42.365Z,5.10
2022-11-06T14:57:16.697Z,5.00
2022-11-06T14:59:45.661Z,4.90
2022-11-06T15:02:19.026Z,4.90
2022-11-06T15:04:50.960Z,4.80
2022-11-06T15:08:03.095Z,4.80
2022-11-06T15:10:42.934Z,4.70
2022-11-06T15:13:13.201Z,4.60
2022-11-06T15:15:43.196Z,4.60
2022-11-06T15:18:16.202Z,4.60
2022-11-06T15:20:49.366Z,4.50
2022-11-06T15:23:23.735Z,4.40
2022-11-06T15:25:57.860Z,4.30
2022-11-06T15:28:28.791Z,4.30
2022-11-06T15:31:00.455Z,4.20
2022-11-06T15:33:33.531Z,4.20
2022-11-06T15:36:04.796Z,4.10
2022-11-06T15:38:38.856Z,4.10
2022-11-06T15:41:09.046Z,4.10
2022-11-06T15:43:38.870Z,4.10
2022-11-06T15:46:08.740Z,4.00
2022-11-06T15:48:38.801Z,4.00
2022-11-06T15:51:20.843Z,3.90
2022-11-06T15:53:49.508Z,3.80
2022-11-06T15:56:20.806Z,3.80
2022-11-06T15:59:05.659Z,3.70
2022-11-06T16:01:35.731Z,3.60
2022-11-06T16:04:13.048Z,3.60
2022-11-06T16:06:44.462Z,3.50
2022-11-06T16:09:16.569Z,3.50
2022-11-06T16:11:46.486Z,3.50
2022-11-06T16:14:15.606Z,3.50
2022-11-06T16:16:46.051Z,3.50
2022-11-06T16:19:22.025Z,3.50
2022-11-06T16:21:52.870Z,3.40
2022-11-06T16:24:22.189Z,3.30
2022-11-06T16:26:51.986Z,3.30
2022-11-06T16:29:22.317Z,3.30
2022-11-06T16:31:59.497Z,3.20
2022-11-06T16:34:45.901Z,3.20
2022-11-06T16:37:50.818Z,3.20
2022-11-06T16:40:39.751Z,3.30
2022-11-06T16:43:18.773Z,3.30
2022-11-06T16:49:22.157Z,3.40
2022-11-06T16:51:51.258Z,3.80
2022-11-06T16:54:23.825Z,4.00
2022-11-06T16:56:52.722Z,4.00
2022-11-06T16:59:24.971Z,4.10
2022-11-06T17:01:54.892Z,4.20
2022-11-06T17:04:26.264Z,4.20
2022-11-06T17:06:55.086Z,4.30
2022-11-06T17:09:31.235Z,4.40
2022-11-06T17:12:00.458Z,4.40
2022-11-06T17:14:31.318Z,4.40
2022-11-06T17:17:00.910Z,4.40
2022-11-06T17:19:30.073Z,4.40
2022-11-06T17:21:59.219Z,4.30
2022-11-06T17:24:36.950Z,4.30
2022-11-06T17:27:06.541Z,4.30
2022-11-06T17:29:37.134Z,4.30
2022-11-06T17:32:05.920Z,4.30
2022-11-06T17:34:34.846Z,4.30
2022-11-06T17:37:04.820Z,4.40
2022-11-06T17:39:34.097Z,4.60
2022-11-06T17:42:02.608Z,4.60
2022-11-06T17:44:31.287Z,4.50
2022-11-06T17:47:01.296Z,4.40
2022-11-06T17:49:30.116Z,4.40
2022-11-06T17:52:01.832Z,4.40
2022-11-06T17:54:33.233Z,4.30
2022-11-06T17:57:02.705Z,4.30
2022-11-06T17:59:31.732Z,4.10
2022-11-06T18:02:02.441Z,3.90
2022-11-06T18:04:31.731Z,3.80
2022-11-06T18:07:00.436Z,3.70
2022-11-06T18:09:29.128Z,3.50
2022-11-06T18:11:57.928Z,3.40
2022-11-06T18:14:27.546Z,3.20
2022-11-06T18:16:56.281Z,3.20
2022-11-06T18:19:26.837Z,3.10
2022-11-06T18:21:56.200Z,3.10
2022-11-06T18:24:25.539Z,3.00
2022-11-06T18:26:54.547Z,2.90
2022-11-06T18:29:23.367Z,2.90
2022-11-06T18:31:52.083Z,3.00
2022-11-06T18:34:21.511Z,3.10
2022-11-06T18:37:44.034Z,3.20
2022-11-06T18:40:14.579Z,3.20
2022-11-06T18:42:43.297Z,3.10
2022-11-06T18:45:12.053Z,3.10
2022-11-06T18:47:40.729Z,3.00
2022-11-06T18:50:09.720Z,3.00
2022-11-06T18:52:56.871Z,2.80
2022-11-06T18:55:27.773Z,2.80
2022-11-06T18:57:56.820Z,2.60
2022-11-06T19:00:25.818Z,2.50
2022-11-06T19:02:54.514Z,2.30
2022-11-06T19:05:26.005Z,1.70
2022-11-06T19:08:00.176Z,2.10
2022-11-06T19:10:31.369Z,2.00
2022-11-06T19:13:00.318Z,1.90
2022-11-06T19:15:28.847Z,1.80
2022-11-06T19:17:57.788Z,1.70
2022-11-06T19:20:26.422Z,1.70
2022-11-06T19:22:56.220Z,1.50
2022-11-06T19:25:25.770Z,1.50
2022-11-06T19:27:59.387Z,1.40
2022-11-06T19:30:28.062Z,1.40
2022-11-06T19:32:56.772Z,1.30
2022-11-06T19:35:28.528Z,1.40
2022-11-06T19:37:57.326Z,1.40
2022-11-06T19:40:27.736Z,1.50
2022-11-06T19:42:58.670Z,1.50
2022-11-06T19:45:27.736Z,1.60
2022-11-06T19:47:56.414Z,1.60
2022-11-06T19:50:45.795Z,1.60
2022-11-06T19:53:17.116Z,1.70
2022-11-06T19:55:46.028Z,1.80
2022-11-06T19:58:16.166Z,1.80
2022-11-06T20:00:45.075Z,1.90
2022-11-06T20:03:14.090Z,1.90
2022-11-06T20:05:42.968Z,1.90
2022-11-06T20:08:11.693Z,1.90
2022-11-06T20:10:41.517Z,1.80
2022-11-06T20:13:10.683Z,1.80
2022-11-06T20:15:40.833Z,1.70
2022-11-06T20:18:10.058Z,1.70
2022-11-06T20:20:38.728Z,1.70
2022-11-06T20:23:07.536Z,1.70
2022-11-06T20:25:36.120Z,1.60
2022-11-06T20:28:04.912Z,1.70
2022-11-06T20:30:33.489Z,1.60
2022-11-06T20:33:03.396Z,2.20
2022-11-06T20:35:33.178Z,1.60
2022-11-06T20:38:02.057Z,1.50
2022-11-06T20:40:31.944Z,1.40
2022-11-06T20:43:05.063Z,1.30
2022-11-06T20:45:37.228Z,1.20
2022-11-06T20:48:09.562Z,1.20
2022-11-06T20:50:39.315Z,1.10
2022-11-06T20:53:08.038Z,1.00
2022-11-06T20:55:36.696Z,1.00
2022-11-06T20:58:44.591Z,1.00
2022-11-06T21:05:22.739Z,-0.20
2022-11-06T21:08:01.620Z,1.40
2022-11-06T21:11:19.201Z,0.90
2022-11-06T21:13:51.987Z,1.00
2022-11-06T21:16:29.099Z,1.40
2022-11-06T21:19:02.858Z,1.40
2022-11-06T21:21:33.178Z,0.80
2022-11-06T21:24:03.341Z,0.70
2022-11-06T21:26:32.795Z,0.80
2022-11-06T21:29:02.188Z,0.90
2022-11-06T21:31:31.615Z,0.80
2022-11-06T21:34:00.857Z,0.80
2022-11-06T21:36:30.658Z,0.80
2022-11-06T21:39:00.214Z,1.50
2022-11-06T21:41:30.890Z,1.60
2022-11-06T21:43:59.760Z,1.80
2022-11-06T21:46:28.617Z,1.80
2022-11-06T21:48:57.674Z,1.90
2022-11-06T21:51:27.760Z,1.90
2022-11-06T21:54:14.797Z,1.90
2022-11-06T21:56:53.595Z,1.80
2022-11-06T21:59:25.436Z,1.70
2022-11-06T22:01:54.728Z,1.70
2022-11-06T22:04:23.603Z,1.60
2022-11-06T22:06:53.013Z,1.60
2022-11-06T22:09:25.178Z,1.60
2022-11-06T22:11:55.711Z,1.70
2022-11-06T22:14:24.296Z,1.70
2022-11-06T22:16:53.390Z,1.70
2022-11-06T22:19:22.025Z,1.70
2022-11-06T22:21:50.576Z,1.70
2022-11-06T22:24:19.254Z,1.80
2022-11-06T22:26:47.885Z,1.80
2022-11-06T22:29:17.787Z,1.80
2022-11-06T22:31:46.420Z,1.90
2022-11-06T22:34:15.146Z,2.00
2022-11-06T22:36:43.893Z,2.10
2022-11-06T22:39:13.244Z,2.10
2022-11-06T22:41:42.053Z,2.20
2022-11-06T22:44:12.092Z,2.20
2022-11-06T22:46:42.580Z,2.20
2022-11-06T22:49:11.247Z,2.20
2022-11-06T22:51:39.854Z,2.20
2022-11-06T22:54:08.498Z,2.10
2022-11-06T22:56:37.054Z,2.10
2022-11-06T22:59:07.828Z,2.10
2022-11-06T23:01:41.762Z,2.20
2022-11-06T23:04:15.861Z,2.20
2022-11-06T23:06:44.857Z,2.30
2022-11-06T23:09:13.736Z,2.30
2022-11-06T23:11:42.394Z,2.20
2022-11-06T23:14:10.987Z,2.20
2022-11-06T23:16:57.150Z,2.30
2022-11-06T23:19:27.820Z,-0.20
2022-11-06T23:22:17.354Z,2.20
2022-11-06T23:24:46.083Z,2.20
2022-11-06T23:27:14.878Z,2.10
2022-11-06T23:29:43.429Z,2.10
2022-11-06T23:32:12.077Z,2.10
2022-11-06T23:34:42.046Z,2.20
2022-11-06T23:37:10.773Z,2.20
2022-11-06T23:39:39.574Z,2.20
2022-11-06T23:42:08.353Z,2.20
2022-11-06T23:44:57.220Z,2.30
2022-11-06T23:47:25.951Z,2.20
2022-11-06T23:49:55.994Z,2.20
2022-11-06T23:52:24.826Z,2.10
2022-11-06T23:54:53.648Z,2.00
2022-11-06T23:57:22.579Z,1.90
2022-11-06T23:59:51.228Z,1.80
